sensor_id;sensor_type;location;lat;lon;timestamp;pressure;altitude;pressure_sealevel;temperature;humidity
64610;BME280;51019;46.090;6.350;2023-04-07T00:01:55;96643.97;;;7.49;74.19
64610;BME280;51019;46.090;6.350;2023-04-07T00:04:22;96576.94;;;6.95;72.63
64610;BME280;51019;46.090;6.350;2023-04-07T00:06:50;96651.34;;;7.21;75.09
64610;BME280;51019;46.090;6.350;2023-04-07T00:09:19;96644.94;;;7.14;76.02
64610;BME280;51019;46.090;6.350;2023-04-07T00:11:46;96649.56;;;7.00;77.33
64610;BME280;51019;46.090;6.350;2023-04-07T00:14:16;96644.06;;;6.80;79.42
64610;BME280;51019;46.090;6.350;2023-04-07T00:16:43;96637.91;;;6.70;80.44
64610;BME280;51019;46.090;6.350;2023-04-07T00:19:10;96641.31;;;6.60;81.17
64610;BME280;51019;46.090;6.350;2023-04-07T00:21:38;96640.16;;;6.64;80.70
64610;BME280;51019;46.090;6.350;2023-04-07T00:24:05;96614.00;;;6.54;78.59
64610;BME280;51019;46.090;6.350;2023-04-07T00:26:33;96616.44;;;6.55;77.75
64610;BME280;51019;46.090;6.350;2023-04-07T00:29:00;96622.75;;;6.64;75.91
64610;BME280;51019;46.090;6.350;2023-04-07T00:31:30;96525.41;;;6.21;73.21
64610;BME280;51019;46.090;6.350;2023-04-07T00:33:59;96609.38;;;6.69;72.32
64610;BME280;51019;46.090;6.350;2023-04-07T00:36:27;96577.50;;;6.43;72.08
64610;BME280;51019;46.090;6.350;2023-04-07T00:38:55;96590.03;;;6.38;72.56
64610;BME280;51019;46.090;6.350;2023-04-07T00:41:23;96603.06;;;6.38;73.70
64610;BME280;51019;46.090;6.350;2023-04-07T00:43:51;96599.38;;;6.29;74.25
64610;BME280;51019;46.090;6.350;2023-04-07T00:46:21;96593.59;;;6.37;74.39
64610;BME280;51019;46.090;6.350;2023-04-07T00:48:51;96590.63;;;6.30;75.30
64610;BME280;51019;46.090;6.350;2023-04-07T00:51:20;96585.03;;;6.24;75.96
64610;BME280;51019;46.090;6.350;2023-04-07T00:53:48;96584.91;;;6.25;74.74
64610;BME280;51019;46.090;6.350;2023-04-07T00:56:15;96580.41;;;6.16;75.44
64610;BME280;51019;46.090;6.350;2023-04-07T00:58:42;96454.69;;;5.34;75.23
64610;BME280;51019;46.090;6.350;2023-04-07T01:01:15;96526.25;;;5.86;73.68
64610;BME280;51019;46.090;6.350;2023-04-07T01:03:55;96538.00;;;5.92;73.18
64610;BME280;51019;46.090;6.350;2023-04-07T01:06:27;96563.72;;;6.07;72.70
64610;BME280;51019;46.090;6.350;2023-04-07T01:09:03;96569.50;;;6.11;74.16
64610;BME280;51019;46.090;6.350;2023-04-07T01:11:36;96559.03;;;5.89;77.80
64610;BME280;51019;46.090;6.350;2023-04-07T01:14:12;96557.97;;;5.43;84.50
64610;BME280;51019;46.090;6.350;2023-04-07T01:16:42;96559.09;;;5.28;84.53
64610;BME280;51019;46.090;6.350;2023-04-07T01:19:28;96569.97;;;5.33;85.85
64610;BME280;51019;46.090;6.350;2023-04-07T01:21:59;96565.28;;;5.38;84.06
64610;BME280;51019;46.090;6.350;2023-04-07T01:24:41;96571.31;;;5.39;85.12
64610;BME280;51019;46.090;6.350;2023-04-07T01:27:20;96526.75;;;5.20;83.72
64610;BME280;51019;46.090;6.350;2023-04-07T01:29:57;96556.03;;;5.34;83.72
64610;BME280;51019;46.090;6.350;2023-04-07T01:32:28;96558.84;;;5.31;82.83
64610;BME280;51019;46.090;6.350;2023-04-07T01:34:58;96556.19;;;5.44;79.61
64610;BME280;51019;46.090;6.350;2023-04-07T01:37:26;96559.25;;;5.38;80.51
64610;BME280;51019;46.090;6.350;2023-04-07T01:39:54;96537.47;;;5.28;77.78
64610;BME280;51019;46.090;6.350;2023-04-07T01:42:24;96552.44;;;5.72;72.73
64610;BME280;51019;46.090;6.350;2023-04-07T01:44:55;96544.13;;;5.91;72.25
64610;BME280;51019;46.090;6.350;2023-04-07T01:47:24;96545.63;;;5.82;71.79
64610;BME280;51019;46.090;6.350;2023-04-07T01:49:56;96543.00;;;5.82;70.94
64610;BME280;51019;46.090;6.350;2023-04-07T01:52:24;96544.63;;;5.72;73.20
64610;BME280;51019;46.090;6.350;2023-04-07T01:54:53;96549.53;;;5.29;76.38
64610;BME280;51019;46.090;6.350;2023-04-07T01:57:22;96550.31;;;5.05;79.62
64610;BME280;51019;46.090;6.350;2023-04-07T01:59:51;96553.63;;;4.71;82.96
64610;BME280;51019;46.090;6.350;2023-04-07T02:02:22;96549.47;;;4.43;85.10
64610;BME280;51019;46.090;6.350;2023-04-07T02:04:54;96554.94;;;4.64;83.74
64610;BME280;51019;46.090;6.350;2023-04-07T02:07:24;96555.50;;;4.44;85.23
64610;BME280;51019;46.090;6.350;2023-04-07T02:09:56;96535.34;;;4.22;87.99
64610;BME280;51019;46.090;6.350;2023-04-07T02:12:26;96527.38;;;3.99;90.55
64610;BME280;51019;46.090;6.350;2023-04-07T02:14:56;96541.38;;;4.22;89.63
64610;BME280;51019;46.090;6.350;2023-04-07T02:17:27;96543.88;;;4.11;90.54
64610;BME280;51019;46.090;6.350;2023-04-07T02:19:58;96533.81;;;3.94;93.08
64610;BME280;51019;46.090;6.350;2023-04-07T02:22:26;96534.31;;;3.99;93.33
64610;BME280;51019;46.090;6.350;2023-04-07T02:24:55;96490.22;;;3.86;93.31
64610;BME280;51019;46.090;6.350;2023-04-07T02:27:22;96495.28;;;3.75;93.04
64610;BME280;51019;46.090;6.350;2023-04-07T02:29:49;96527.69;;;3.55;97.27
64610;BME280;51019;46.090;6.350;2023-04-07T02:32:16;96514.69;;;3.70;96.40
64610;BME280;51019;46.090;6.350;2023-04-07T02:34:46;96513.41;;;3.62;97.67
64610;BME280;51019;46.090;6.350;2023-04-07T02:37:14;96499.25;;;3.93;96.39
64610;BME280;51019;46.090;6.350;2023-04-07T02:39:41;96501.97;;;4.05;96.56
64610;BME280;51019;46.090;6.350;2023-04-07T02:42:12;96470.09;;;4.03;93.79
64610;BME280;51019;46.090;6.350;2023-04-07T02:44:39;96469.78;;;4.07;93.24
64610;BME280;51019;46.090;6.350;2023-04-07T02:47:06;96486.91;;;4.10;93.94
64610;BME280;51019;46.090;6.350;2023-04-07T02:49:34;96481.91;;;4.32;90.08
64610;BME280;51019;46.090;6.350;2023-04-07T02:52:03;96460.41;;;4.43;86.67
64610;BME280;51019;46.090;6.350;2023-04-07T02:54:31;96452.88;;;4.63;82.81
64610;BME280;51019;46.090;6.350;2023-04-07T02:56:59;96481.50;;;4.38;88.29
64610;BME280;51019;46.090;6.350;2023-04-07T02:59:26;96454.25;;;3.94;90.87
64610;BME280;51019;46.090;6.350;2023-04-07T03:01:53;96475.88;;;3.55;94.74
64610;BME280;51019;46.090;6.350;2023-04-07T03:04:21;96433.41;;;3.71;90.28
64610;BME280;51019;46.090;6.350;2023-04-07T03:06:48;96458.56;;;4.81;80.18
64610;BME280;51019;46.090;6.350;2023-04-07T03:09:17;96447.22;;;4.82;80.75
64610;BME280;51019;46.090;6.350;2023-04-07T03:11:44;96431.09;;;4.90;79.34
64610;BME280;51019;46.090;6.350;2023-04-07T03:14:12;96457.06;;;5.14;77.84
64610;BME280;51019;46.090;6.350;2023-04-07T03:16:40;96406.72;;;5.03;76.17
64610;BME280;51019;46.090;6.350;2023-04-07T03:19:08;96435.50;;;5.24;76.42
64610;BME280;51019;46.090;6.350;2023-04-07T03:21:36;96442.28;;;5.38;76.00
64610;BME280;51019;46.090;6.350;2023-04-07T03:24:06;96444.72;;;5.52;74.74
64610;BME280;51019;46.090;6.350;2023-04-07T03:26:36;96430.56;;;5.67;72.03
64610;BME280;51019;46.090;6.350;2023-04-07T03:29:03;96389.66;;;5.58;71.85
64610;BME280;51019;46.090;6.350;2023-04-07T03:31:30;96394.78;;;5.82;70.23
64610;BME280;51019;46.090;6.350;2023-04-07T03:33:58;96398.25;;;5.94;70.89
64610;BME280;51019;46.090;6.350;2023-04-07T03:36:25;96402.28;;;5.98;70.35
64610;BME280;51019;46.090;6.350;2023-04-07T03:38:53;96382.38;;;5.86;70.85
64610;BME280;51019;46.090;6.350;2023-04-07T03:41:21;96376.22;;;5.87;70.88
64610;BME280;51019;46.090;6.350;2023-04-07T03:43:50;96382.16;;;5.89;71.53
64610;BME280;51019;46.090;6.350;2023-04-07T03:46:18;96365.53;;;5.67;71.49
64610;BME280;51019;46.090;6.350;2023-04-07T03:48:46;96372.19;;;5.71;71.96
64610;BME280;51019;46.090;6.350;2023-04-07T03:51:14;96384.69;;;5.77;71.46
64610;BME280;51019;46.090;6.350;2023-04-07T03:53:41;96373.13;;;5.81;70.77
64610;BME280;51019;46.090;6.350;2023-04-07T03:56:09;96280.69;;;5.44;67.64
64610;BME280;51019;46.090;6.350;2023-04-07T03:58:37;96366.31;;;5.92;69.96
64610;BME280;51019;46.090;6.350;2023-04-07T04:01:08;96371.50;;;6.03;72.01
64610;BME280;51019;46.090;6.350;2023-04-07T04:03:43;96353.66;;;6.09;67.25
64610;BME280;51019;46.090;6.350;2023-04-07T04:06:12;96366.78;;;6.19;67.44
64610;BME280;51019;46.090;6.350;2023-04-07T04:08:40;96376.72;;;6.14;67.46
64610;BME280;51019;46.090;6.350;2023-04-07T04:11:10;96369.03;;;6.12;67.84
64610;BME280;51019;46.090;6.350;2023-04-07T04:13:41;96338.97;;;5.86;72.79
64610;BME280;51019;46.090;6.350;2023-04-07T04:16:11;96361.09;;;5.92;75.98
64610;BME280;51019;46.090;6.350;2023-04-07T04:18:38;96350.19;;;5.64;78.88
64610;BME280;51019;46.090;6.350;2023-04-07T04:21:06;96359.38;;;5.57;80.04
64610;BME280;51019;46.090;6.350;2023-04-07T04:23:35;96374.66;;;5.62;80.31
64610;BME280;51019;46.090;6.350;2023-04-07T04:26:02;96331.94;;;5.31;83.68
64610;BME280;51019;46.090;6.350;2023-04-07T04:28:30;96360.66;;;5.29;84.51
64610;BME280;51019;46.090;6.350;2023-04-07T04:30:57;96421.88;;;5.44;89.39
64610;BME280;51019;46.090;6.350;2023-04-07T04:33:26;96443.31;;;5.24;90.91
64610;BME280;51019;46.090;6.350;2023-04-07T04:35:54;96425.63;;;5.05;90.85
64610;BME280;51019;46.090;6.350;2023-04-07T04:38:22;96420.53;;;5.04;93.48
64610;BME280;51019;46.090;6.350;2023-04-07T04:40:52;96447.50;;;5.14;89.27
64610;BME280;51019;46.090;6.350;2023-04-07T04:43:19;96435.19;;;5.29;87.94
64610;BME280;51019;46.090;6.350;2023-04-07T04:45:47;96463.88;;;5.27;87.14
64610;BME280;51019;46.090;6.350;2023-04-07T04:48:16;96478.00;;;5.47;88.56
64610;BME280;51019;46.090;6.350;2023-04-07T04:50:46;96462.38;;;5.36;84.21
64610;BME280;51019;46.090;6.350;2023-04-07T04:53:15;96463.56;;;5.43;81.40
64610;BME280;51019;46.090;6.350;2023-04-07T04:55:43;96486.25;;;5.76;76.49
64610;BME280;51019;46.090;6.350;2023-04-07T04:58:17;96483.41;;;5.79;83.37
64610;BME280;51019;46.090;6.350;2023-04-07T05:00:48;96461.44;;;5.83;84.38
64610;BME280;51019;46.090;6.350;2023-04-07T05:03:22;96460.72;;;5.81;85.70
64610;BME280;51019;46.090;6.350;2023-04-07T05:05:52;96470.88;;;5.73;87.40
64610;BME280;51019;46.090;6.350;2023-04-07T05:08:20;96481.19;;;5.74;91.66
64610;BME280;51019;46.090;6.350;2023-04-07T05:10:48;96474.34;;;5.84;100.00
64610;BME280;51019;46.090;6.350;2023-04-07T05:13:15;96478.94;;;5.81;100.00
64610;BME280;51019;46.090;6.350;2023-04-07T05:15:43;96466.69;;;5.59;100.00
64610;BME280;51019;46.090;6.350;2023-04-07T05:18:10;96457.34;;;5.57;100.00
64610;BME280;51019;46.090;6.350;2023-04-07T05:20:38;96473.72;;;5.81;97.10
64610;BME280;51019;46.090;6.350;2023-04-07T05:23:12;96440.94;;;5.67;98.44
64610;BME280;51019;46.090;6.350;2023-04-07T05:25:39;96434.19;;;5.65;100.00
64610;BME280;51019;46.090;6.350;2023-04-07T05:28:07;96455.84;;;5.76;100.00
64610;BME280;51019;46.090;6.350;2023-04-07T05:30:36;96458.81;;;5.72;100.00
64610;BME280;51019;46.090;6.350;2023-04-07T05:33:08;96456.81;;;5.64;100.00
64610;BME280;51019;46.090;6.350;2023-04-07T05:35:37;96455.50;;;5.70;100.00
64610;BME280;51019;46.090;6.350;2023-04-07T05:38:05;96471.47;;;5.76;100.00
64610;BME280;51019;46.090;6.350;2023-04-07T05:40:36;96479.47;;;5.62;100.00
64610;BME280;51019;46.090;6.350;2023-04-07T05:43:04;96471.66;;;5.51;100.00
64610;BME280;51019;46.090;6.350;2023-04-07T05:45:33;96477.00;;;5.61;100.00
64610;BME280;51019;46.090;6.350;2023-04-07T05:48:01;96457.69;;;5.41;100.00
64610;BME280;51019;46.090;6.350;2023-04-07T05:50:31;96479.06;;;5.44;100.00
64610;BME280;51019;46.090;6.350;2023-04-07T05:52:59;96472.84;;;5.58;100.00
64610;BME280;51019;46.090;6.350;2023-04-07T05:55:28;96466.47;;;5.62;100.00
64610;BME280;51019;46.090;6.350;2023-04-07T05:57:58;96440.75;;;5.35;100.00
64610;BME280;51019;46.090;6.350;2023-04-07T06:00:26;96465.44;;;5.30;100.00
64610;BME280;51019;46.090;6.350;2023-04-07T06:02:54;96480.66;;;5.34;100.00
64610;BME280;51019;46.090;6.350;2023-04-07T06:05:21;96474.47;;;5.00;100.00
64610;BME280;51019;46.090;6.350;2023-04-07T06:07:49;96502.69;;;5.18;100.00
64610;BME280;51019;46.090;6.350;2023-04-07T06:10:17;96508.19;;;5.13;100.00
64610;BME280;51019;46.090;6.350;2023-04-07T06:12:46;96505.50;;;5.15;100.00
64610;BME280;51019;46.090;6.350;2023-04-07T06:15:17;96513.13;;;5.05;100.00
64610;BME280;51019;46.090;6.350;2023-04-07T06:17:45;96477.88;;;4.77;100.00
64610;BME280;51019;46.090;6.350;2023-04-07T06:20:13;96499.91;;;4.84;100.00
64610;BME280;51019;46.090;6.350;2023-04-07T06:22:41;96538.00;;;5.20;100.00
64610;BME280;51019;46.090;6.350;2023-04-07T06:25:09;96562.88;;;5.11;100.00
64610;BME280;51019;46.090;6.350;2023-04-07T06:27:37;96563.91;;;5.09;100.00
64610;BME280;51019;46.090;6.350;2023-04-07T06:30:06;96574.56;;;4.93;100.00
64610;BME280;51019;46.090;6.350;2023-04-07T06:32:37;96575.59;;;4.91;100.00
64610;BME280;51019;46.090;6.350;2023-04-07T06:35:07;96578.41;;;4.88;100.00
64610;BME280;51019;46.090;6.350;2023-04-07T06:37:34;96572.91;;;4.80;100.00
64610;BME280;51019;46.090;6.350;2023-04-07T06:40:04;96519.78;;;4.34;100.00
64610;BME280;51019;46.090;6.350;2023-04-07T06:42:32;96553.00;;;4.55;100.00
64610;BME280;51019;46.090;6.350;2023-04-07T06:45:00;96562.25;;;4.59;100.00
64610;BME280;51019;46.090;6.350;2023-04-07T06:47:28;96542.84;;;4.39;100.00
64610;BME280;51019;46.090;6.350;2023-04-07T06:49:57;96535.06;;;4.26;100.00
64610;BME280;51019;46.090;6.350;2023-04-07T06:52:26;96569.63;;;4.40;100.00
64610;BME280;51019;46.090;6.350;2023-04-07T06:54:54;96551.56;;;4.38;100.00
64610;BME280;51019;46.090;6.350;2023-04-07T06:57:21;96572.72;;;4.32;100.00
64610;BME280;51019;46.090;6.350;2023-04-07T06:59:48;96590.28;;;4.28;100.00
64610;BME280;51019;46.090;6.350;2023-04-07T07:02:16;96599.41;;;4.34;100.00
64610;BME280;51019;46.090;6.350;2023-04-07T07:04:43;96612.19;;;4.37;100.00
64610;BME280;51019;46.090;6.350;2023-04-07T07:07:12;96594.84;;;4.25;100.00
64610;BME280;51019;46.090;6.350;2023-04-07T07:09:41;96602.63;;;4.25;100.00
64610;BME280;51019;46.090;6.350;2023-04-07T07:12:09;96604.69;;;4.32;100.00
64610;BME280;51019;46.090;6.350;2023-04-07T07:14:36;96611.84;;;4.29;100.00
64610;BME280;51019;46.090;6.350;2023-04-07T07:17:04;96597.44;;;4.25;100.00
64610;BME280;51019;46.090;6.350;2023-04-07T07:19:31;96611.97;;;4.27;100.00
64610;BME280;51019;46.090;6.350;2023-04-07T07:22:00;96614.44;;;4.29;100.00
64610;BME280;51019;46.090;6.350;2023-04-07T07:24:31;96605.50;;;4.20;100.00
64610;BME280;51019;46.090;6.350;2023-04-07T07:26:58;96620.25;;;4.32;100.00
64610;BME280;51019;46.090;6.350;2023-04-07T07:29:26;96600.22;;;4.34;100.00
64610;BME280;51019;46.090;6.350;2023-04-07T07:31:54;96603.47;;;4.38;100.00
64610;BME280;51019;46.090;6.350;2023-04-07T07:34:21;96607.50;;;4.42;100.00
64610;BME280;51019;46.090;6.350;2023-04-07T07:36:48;96608.66;;;4.38;100.00
64610;BME280;51019;46.090;6.350;2023-04-07T07:39:17;96610.53;;;4.49;100.00
64610;BME280;51019;46.090;6.350;2023-04-07T07:41:46;96592.84;;;4.66;100.00
64610;BME280;51019;46.090;6.350;2023-04-07T07:44:15;96609.06;;;4.70;100.00
64610;BME280;51019;46.090;6.350;2023-04-07T07:46:44;96594.63;;;4.66;100.00
64610;BME280;51019;46.090;6.350;2023-04-07T07:49:13;96590.38;;;4.65;100.00
64610;BME280;51019;46.090;6.350;2023-04-07T07:51:40;96619.75;;;4.78;100.00
64610;BME280;51019;46.090;6.350;2023-04-07T07:54:11;96615.50;;;4.77;100.00
64610;BME280;51019;46.090;6.350;2023-04-07T07:56:40;96585.50;;;4.60;100.00
64610;BME280;51019;46.090;6.350;2023-04-07T07:59:11;96604.38;;;4.75;100.00
64610;BME280;51019;46.090;6.350;2023-04-07T08:01:39;96609.91;;;4.70;100.00
64610;BME280;51019;46.090;6.350;2023-04-07T08:04:08;96618.72;;;4.81;100.00
64610;BME280;51019;46.090;6.350;2023-04-07T08:06:36;96621.63;;;4.63;100.00
64610;BME280;51019;46.090;6.350;2023-04-07T08:09:05;96615.19;;;4.69;100.00
64610;BME280;51019;46.090;6.350;2023-04-07T08:11:33;96609.47;;;4.64;100.00
64610;BME280;51019;46.090;6.350;2023-04-07T08:14:02;96540.97;;;4.28;100.00
64610;BME280;51019;46.090;6.350;2023-04-07T08:16:33;96611.13;;;4.65;100.00
64610;BME280;51019;46.090;6.350;2023-04-07T08:19:00;96618.19;;;4.75;100.00
64610;BME280;51019;46.090;6.350;2023-04-07T08:21:28;96582.28;;;4.57;100.00
64610;BME280;51019;46.090;6.350;2023-04-07T08:23:56;96553.22;;;4.26;100.00
64610;BME280;51019;46.090;6.350;2023-04-07T08:26:23;96503.28;;;4.10;100.00
64610;BME280;51019;46.090;6.350;2023-04-07T08:28:52;96594.13;;;4.61;100.00
64610;BME280;51019;46.090;6.350;2023-04-07T08:31:20;96574.28;;;5.09;100.00
64610;BME280;51019;46.090;6.350;2023-04-07T08:33:50;96595.75;;;5.60;100.00
64610;BME280;51019;46.090;6.350;2023-04-07T08:36:19;96612.56;;;6.15;100.00
64610;BME280;51019;46.090;6.350;2023-04-07T08:38:46;96616.94;;;6.14;100.00
64610;BME280;51019;46.090;6.350;2023-04-07T08:41:18;96621.72;;;6.21;100.00
64610;BME280;51019;46.090;6.350;2023-04-07T08:43:47;96627.94;;;6.07;100.00
64610;BME280;51019;46.090;6.350;2023-04-07T08:46:18;96629.31;;;5.87;100.00
64610;BME280;51019;46.090;6.350;2023-04-07T08:48:50;96633.31;;;5.80;100.00
64610;BME280;51019;46.090;6.350;2023-04-07T08:51:26;96617.25;;;5.75;100.00
64610;BME280;51019;46.090;6.350;2023-04-07T08:53:53;96627.63;;;5.75;100.00
64610;BME280;51019;46.090;6.350;2023-04-07T08:56:26;96621.94;;;5.70;100.00
64610;BME280;51019;46.090;6.350;2023-04-07T08:58:54;96622.25;;;5.65;100.00
64610;BME280;51019;46.090;6.350;2023-04-07T09:01:21;96615.09;;;5.56;100.00
64610;BME280;51019;46.090;6.350;2023-04-07T09:03:51;96596.19;;;5.54;100.00
64610;BME280;51019;46.090;6.350;2023-04-07T09:06:19;96621.97;;;6.97;100.00
64610;BME280;51019;46.090;6.350;2023-04-07T09:08:47;96618.31;;;7.76;100.00
64610;BME280;51019;46.090;6.350;2023-04-07T09:11:14;96622.97;;;7.93;100.00
64610;BME280;51019;46.090;6.350;2023-04-07T09:13:41;96615.72;;;7.65;100.00
64610;BME280;51019;46.090;6.350;2023-04-07T09:16:09;96617.44;;;7.33;100.00
64610;BME280;51019;46.090;6.350;2023-04-07T09:18:38;96599.78;;;7.25;100.00
64610;BME280;51019;46.090;6.350;2023-04-07T09:21:08;96607.88;;;7.11;100.00
64610;BME280;51019;46.090;6.350;2023-04-07T09:23:37;96620.47;;;7.49;100.00
64610;BME280;51019;46.090;6.350;2023-04-07T09:26:19;96613.19;;;7.75;100.00
64610;BME280;51019;46.090;6.350;2023-04-07T09:28:48;96601.16;;;8.15;100.00
64610;BME280;51019;46.090;6.350;2023-04-07T09:31:16;96616.75;;;8.06;100.00
64610;BME280;51019;46.090;6.350;2023-04-07T09:33:45;96612.69;;;7.81;100.00
64610;BME280;51019;46.090;6.350;2023-04-07T09:36:15;96604.34;;;7.66;100.00
64610;BME280;51019;46.090;6.350;2023-04-07T09:38:44;96615.28;;;7.38;100.00
64610;BME280;51019;46.090;6.350;2023-04-07T09:41:13;96616.75;;;7.08;100.00
64610;BME280;51019;46.090;6.350;2023-04-07T09:43:57;96612.72;;;7.04;100.00
64610;BME280;51019;46.090;6.350;2023-04-07T09:46:24;96570.56;;;6.77;100.00
64610;BME280;51019;46.090;6.350;2023-04-07T09:49:00;96601.09;;;7.08;100.00
64610;BME280;51019;46.090;6.350;2023-04-07T09:51:29;96603.47;;;7.00;100.00
64610;BME280;51019;46.090;6.350;2023-04-07T09:53:58;96599.78;;;6.91;100.00
64610;BME280;51019;46.090;6.350;2023-04-07T09:56:26;96535.97;;;6.52;100.00
64610;BME280;51019;46.090;6.350;2023-04-07T09:58:56;96595.78;;;6.99;100.00
64610;BME280;51019;46.090;6.350;2023-04-07T10:01:24;96588.44;;;6.92;100.00
64610;BME280;51019;46.090;6.350;2023-04-07T10:03:53;96600.06;;;7.00;100.00
64610;BME280;51019;46.090;6.350;2023-04-07T10:06:21;96600.84;;;7.00;100.00
64610;BME280;51019;46.090;6.350;2023-04-07T10:08:52;96570.78;;;6.85;100.00
64610;BME280;51019;46.090;6.350;2023-04-07T10:11:19;96608.09;;;7.08;100.00
64610;BME280;51019;46.090;6.350;2023-04-07T10:13:46;96599.03;;;7.34;100.00
64610;BME280;51019;46.090;6.350;2023-04-07T10:16:16;96600.81;;;7.34;100.00
64610;BME280;51019;46.090;6.350;2023-04-07T10:18:44;96597.91;;;7.05;100.00
64610;BME280;51019;46.090;6.350;2023-04-07T10:21:12;96587.97;;;7.10;100.00
64610;BME280;51019;46.090;6.350;2023-04-07T10:23:52;96592.09;;;7.12;100.00
64610;BME280;51019;46.090;6.350;2023-04-07T10:26:26;96597.41;;;7.33;100.00
64610;BME280;51019;46.090;6.350;2023-04-07T10:28:59;96593.38;;;7.29;100.00
64610;BME280;51019;46.090;6.350;2023-04-07T10:31:31;96590.13;;;7.48;100.00
64610;BME280;51019;46.090;6.350;2023-04-07T10:34:01;96585.59;;;7.61;100.00
64610;BME280;51019;46.090;6.350;2023-04-07T10:36:29;96575.81;;;7.85;100.00
64610;BME280;51019;46.090;6.350;2023-04-07T10:39:20;96576.91;;;8.03;100.00
64610;BME280;51019;46.090;6.350;2023-04-07T10:41:49;96572.38;;;7.85;100.00
64610;BME280;51019;46.090;6.350;2023-04-07T10:44:46;96567.34;;;8.14;100.00
64610;BME280;51019;46.090;6.350;2023-04-07T10:47:17;96582.78;;;8.17;100.00
64610;BME280;51019;46.090;6.350;2023-04-07T10:50:15;96577.03;;;8.34;100.00
64610;BME280;51019;46.090;6.350;2023-04-07T10:52:45;96579.16;;;8.29;100.00
64610;BME280;51019;46.090;6.350;2023-04-07T10:55:32;96586.25;;;8.38;100.00
64610;BME280;51019;46.090;6.350;2023-04-07T10:58:21;96584.50;;;8.07;100.00
64610;BME280;51019;46.090;6.350;2023-04-07T11:04:13;96581.00;;;8.59;100.00
64610;BME280;51019;46.090;6.350;2023-04-07T11:06:46;96578.22;;;8.51;100.00
64610;BME280;51019;46.090;6.350;2023-04-07T11:09:18;96581.03;;;8.38;100.00
64610;BME280;51019;46.090;6.350;2023-04-07T11:11:45;96577.72;;;8.36;100.00
64610;BME280;51019;46.090;6.350;2023-04-07T11:14:24;96564.84;;;7.91;100.00
64610;BME280;51019;46.090;6.350;2023-04-07T11:17:13;96567.97;;;7.53;100.00
64610;BME280;51019;46.090;6.350;2023-04-07T11:19:51;96566.59;;;7.27;100.00
64610;BME280;51019;46.090;6.350;2023-04-07T11:22:19;96584.63;;;7.19;100.00
64610;BME280;51019;46.090;6.350;2023-04-07T11:24:46;96595.19;;;6.95;100.00
64610;BME280;51019;46.090;6.350;2023-04-07T11:27:14;96596.97;;;6.83;100.00
64610;BME280;51019;46.090;6.350;2023-04-07T11:29:42;96596.44;;;6.56;100.00
64610;BME280;51019;46.090;6.350;2023-04-07T11:32:10;96608.31;;;6.60;100.00
64610;BME280;51019;46.090;6.350;2023-04-07T11:34:40;96614.41;;;6.37;100.00
64610;BME280;51019;46.090;6.350;2023-04-07T11:37:22;96624.22;;;6.33;100.00
64610;BME280;51019;46.090;6.350;2023-04-07T11:39:53;96612.09;;;6.21;100.00
64610;BME280;51019;46.090;6.350;2023-04-07T11:42:31;96616.75;;;6.29;100.00
64610;BME280;51019;46.090;6.350;2023-04-07T11:44:59;96639.25;;;6.30;100.00
64610;BME280;51019;46.090;6.350;2023-04-07T11:47:34;96614.41;;;6.02;100.00
64610;BME280;51019;46.090;6.350;2023-04-07T11:50:03;96633.50;;;5.90;100.00
64610;BME280;51019;46.090;6.350;2023-04-07T11:52:41;96647.34;;;5.90;100.00
64610;BME280;51019;46.090;6.350;2023-04-07T11:55:17;96636.31;;;5.87;100.00
64610;BME280;51019;46.090;6.350;2023-04-07T11:57:48;96640.44;;;5.65;100.00
64610;BME280;51019;46.090;6.350;2023-04-07T12:00:18;96656.56;;;5.70;100.00
64610;BME280;51019;46.090;6.350;2023-04-07T12:02:47;96650.22;;;5.38;100.00
64610;BME280;51019;46.090;6.350;2023-04-07T12:05:14;96645.59;;;5.18;100.00
64610;BME280;51019;46.090;6.350;2023-04-07T12:07:53;96659.84;;;5.48;100.00
64610;BME280;51019;46.090;6.350;2023-04-07T12:10:23;96672.03;;;5.48;100.00
64610;BME280;51019;46.090;6.350;2023-04-07T12:12:51;96668.31;;;5.39;100.00
64610;BME280;51019;46.090;6.350;2023-04-07T12:15:20;96651.81;;;5.15;100.00
64610;BME280;51019;46.090;6.350;2023-04-07T12:17:48;96673.44;;;5.28;100.00
64610;BME280;51019;46.090;6.350;2023-04-07T12:20:17;96675.47;;;5.36;100.00
64610;BME280;51019;46.090;6.350;2023-04-07T12:22:45;96674.66;;;5.23;100.00
64610;BME280;51019;46.090;6.350;2023-04-07T12:25:15;96673.84;;;5.09;100.00
64610;BME280;51019;46.090;6.350;2023-04-07T12:27:44;96679.47;;;5.16;100.00
64610;BME280;51019;46.090;6.350;2023-04-07T12:30:12;96683.63;;;5.19;100.00
64610;BME280;51019;46.090;6.350;2023-04-07T12:32:40;96685.97;;;5.34;100.00
64610;BME280;51019;46.090;6.350;2023-04-07T12:35:07;96658.00;;;5.38;100.00
64610;BME280;51019;46.090;6.350;2023-04-07T12:37:35;96688.44;;;5.48;100.00
64610;BME280;51019;46.090;6.350;2023-04-07T12:40:03;96651.28;;;5.23;100.00
64610;BME280;51019;46.090;6.350;2023-04-07T12:42:33;96683.03;;;5.52;100.00
64610;BME280;51019;46.090;6.350;2023-04-07T12:45:00;96607.56;;;5.04;100.00
64610;BME280;51019;46.090;6.350;2023-04-07T12:47:27;96675.25;;;5.52;100.00
64610;BME280;51019;46.090;6.350;2023-04-07T12:49:55;96668.09;;;5.66;100.00
64610;BME280;51019;46.090;6.350;2023-04-07T12:52:23;96635.97;;;5.67;100.00
64610;BME280;51019;46.090;6.350;2023-04-07T12:54:55;96660.69;;;5.86;100.00
64610;BME280;51019;46.090;6.350;2023-04-07T12:57:23;96643.91;;;5.90;100.00
64610;BME280;51019;46.090;6.350;2023-04-07T12:59:53;96647.00;;;6.18;100.00
64610;BME280;51019;46.090;6.350;2023-04-07T13:02:24;96642.44;;;6.33;100.00
64610;BME280;51019;46.090;6.350;2023-04-07T13:04:52;96606.25;;;6.30;100.00
64610;BME280;51019;46.090;6.350;2023-04-07T13:07:20;96643.00;;;6.72;100.00
64610;BME280;51019;46.090;6.350;2023-04-07T13:09:48;96637.09;;;7.03;100.00
64610;BME280;51019;46.090;6.350;2023-04-07T13:12:15;96640.91;;;6.88;100.00
64610;BME280;51019;46.090;6.350;2023-04-07T13:14:43;96634.38;;;7.05;100.00
64610;BME280;51019;46.090;6.350;2023-04-07T13:17:15;96633.66;;;7.25;100.00
64610;BME280;51019;46.090;6.350;2023-04-07T13:19:43;96604.09;;;8.01;100.00
64610;BME280;51019;46.090;6.350;2023-04-07T13:22:12;96622.75;;;8.70;100.00